Time;durP1;ratioP1;P1;durP2;ratioP2;P2;SDS_P1;SDS_P2;PMS_P1;PMS_P2;Temp;Humidity;BMP_temperature;BMP_pressure;BME280_temperature;BME280_humidity;BME280_pressure;Samples;Min_cycle;Max_cycle;Signal;HPM_P1;HPM_P2
2022/01/30 00:01:42;;;;;;;;;6.00;6.00;;;;;21.03;37.00;102822.69;5067241;28;51146;-46
2022/01/30 00:04:07;;;;;;;;;4.00;4.00;;;;;21.02;36.93;102826.47;5063399;28;50986;-46
2022/01/30 00:06:33;;;;;;;;;5.00;4.00;;;;;21.01;37.26;102815.66;5067803;28;50880;-47
2022/01/30 00:08:58;;;;;;;;;4.75;4.00;;;;;20.99;37.05;102807.56;5059364;28;51225;-48
2022/01/30 00:11:29;;;;;;;;;2.25;2.00;;;;;20.98;37.35;102805.00;5067772;28;51101;-48
2022/01/30 00:13:54;;;;;;;;;4.00;3.75;;;;;20.96;37.12;102812.59;5059813;28;51890;-45
2022/01/30 00:16:22;;;;;;;;;4.00;3.50;;;;;20.93;37.38;102811.03;5067730;28;51078;-47
2022/01/30 00:19:00;;;;;;;;;3.75;3.75;;;;;20.92;37.50;102813.97;5068610;28;51136;-48
2022/01/30 00:23:58;;;;;;;;;3.00;3.00;;;;;20.89;37.53;102817.09;5070148;28;51040;-48
2022/01/30 00:26:29;;;;;;;;;4.75;3.75;;;;;20.88;37.00;102807.97;5064831;28;51361;-46
2022/01/30 00:28:56;;;;;;;;;4.00;3.25;;;;;20.86;37.25;102810.03;5064175;28;50976;-47
2022/01/30 00:31:24;;;;;;;;;3.25;2.00;;;;;20.86;37.09;102811.94;5056845;28;51114;-47
2022/01/30 00:33:49;;;;;;;;;3.00;3.00;;;;;20.85;37.34;102801.94;5064065;28;51730;-45
2022/01/30 00:36:15;;;;;;;;;3.50;2.00;;;;;20.83;37.15;102793.84;5067467;28;51093;-45
2022/01/30 00:38:41;;;;;;;;;2.75;2.75;;;;;20.82;37.08;102796.78;5068485;28;50960;-49
2022/01/30 00:41:07;;;;;;;;;4.75;4.00;;;;;20.80;37.32;102798.84;5064501;28;51245;-47
2022/01/30 00:43:33;;;;;;;;;2.25;2.25;;;;;20.79;37.23;102786.97;5066010;28;51937;-49
2022/01/30 00:45:58;;;;;;;;;3.50;3.00;;;;;20.77;37.41;102791.81;5065259;28;51097;-47
2022/01/30 00:48:23;;;;;;;;;3.00;3.00;;;;;20.77;37.51;102790.97;5069658;28;51539;-48
2022/01/30 00:50:49;;;;;;;;;3.00;3.00;;;;;20.75;37.55;102796.66;5071906;28;50932;-46
2022/01/30 00:53:17;;;;;;;;;3.00;3.00;;;;;20.74;37.11;102789.44;5074129;28;51991;-46
2022/01/30 00:55:43;;;;;;;;;2.75;2.50;;;;;20.73;37.60;102787.69;5069961;28;51406;-46
2022/01/30 00:58:08;;;;;;;;;6.00;3.00;;;;;20.72;37.34;102788.72;5073463;28;51072;-48
2022/01/30 01:00:34;;;;;;;;;5.25;4.00;;;;;20.70;37.02;102783.41;5068819;28;51380;-46
2022/01/30 01:03:01;;;;;;;;;3.50;3.50;;;;;20.69;37.18;102772.56;5065171;28;51811;-46
2022/01/30 01:05:28;;;;;;;;;1.75;1.75;;;;;20.68;37.23;102773.59;5073639;28;51266;-48
2022/01/30 01:07:56;;;;;;;;;3.75;3.50;;;;;20.67;37.17;102766.38;5070282;28;51239;-50
2022/01/30 01:10:32;;;;;;;;;3.25;3.25;;;;;20.67;37.17;102778.25;5069961;28;51230;-48
2022/01/30 01:23:24;;;;;;;;;1.75;1.50;;;;;20.63;37.29;102765.84;5068933;28;51147;-50
2022/01/30 01:23:43;;;;;;;;;3.25;3.00;;;;;20.61;37.49;102753.31;5065405;28;51222;-49
2022/01/30 01:26:08;;;;;;;;;2.75;2.25;;;;;20.60;37.83;102757.94;5070022;28;50937;-47
2022/01/30 01:28:34;;;;;;;;;2.00;1.75;;;;;20.58;37.71;102753.66;5070727;27;51101;-48
2022/01/30 01:30:59;;;;;;;;;2.50;2.50;;;;;20.58;37.64;102756.41;5092528;27;51062;-49
2022/01/30 01:33:32;;;;;;;;;2.25;2.25;;;;;20.56;37.59;102761.25;5069150;28;52824;-48
2022/01/30 01:35:57;;;;;;;;;3.50;3.25;;;;;20.55;37.47;102760.41;5068913;27;51952;-47
2022/01/30 01:38:23;;;;;;;;;3.00;2.00;;;;;20.55;37.43;102756.78;5071523;28;51174;-46
2022/01/30 01:40:53;;;;;;;;;2.25;1.75;;;;;20.53;37.27;102754.22;5068045;28;50907;-46
2022/01/30 01:43:20;;;;;;;;;2.00;2.00;;;;;20.53;37.95;102756.97;5060245;28;51058;-48
2022/01/30 01:45:48;;;;;;;;;2.50;2.25;;;;;20.53;37.53;102758.81;5067324;28;51070;-46
2022/01/30 01:48:14;;;;;;;;;4.00;2.50;;;;;20.51;37.52;102759.00;5060832;28;50961;-51
2022/01/30 01:50:45;;;;;;;;;3.25;1.50;;;;;20.51;37.70;102760.91;5070614;28;51043;-46
2022/01/30 01:53:14;;;;;;;;;4.00;3.00;;;;;20.51;37.81;102761.75;5068836;28;51340;-48
2022/01/30 01:55:41;;;;;;;;;4.25;1.50;;;;;20.50;37.87;102761.94;5069415;28;50918;-46
2022/01/30 01:58:07;;;;;;;;;2.25;2.25;;;;;20.49;37.63;102761.09;5073551;28;51047;-46
2022/01/30 02:00:33;;;;;;;;;2.00;1.00;;;;;20.49;37.82;102750.06;5084241;27;51350;-47
2022/01/30 02:02:59;;;;;;;;;1.75;1.75;;;;;20.46;37.26;102754.03;5068639;28;51129;-46
2022/01/30 02:05:30;;;;;;;;;2.25;1.75;;;;;20.45;37.95;102762.50;5086962;27;51165;-46
2022/01/30 02:12:55;;;;;;;;;1.00;1.00;;;;;20.45;37.53;102762.50;5073551;28;51845;-46
2022/01/30 02:26:01;;;;;;;;;3.00;2.25;;;;;20.42;37.58;102743.50;5060997;28;51567;-46
2022/01/30 02:28:29;;;;;;;;;1.25;1.25;;;;;20.39;37.72;102744.72;5073518;28;51223;-46
2022/01/30 02:31:03;;;;;;;;;1.50;1.50;;;;;20.39;37.78;102747.50;5067081;28;51023;-46
2022/01/30 02:33:28;;;;;;;;;2.25;1.75;;;;;20.38;37.87;102744.91;5058635;28;51262;-47
2022/01/30 02:35:54;;;;;;;;;3.00;1.75;;;;;20.38;37.61;102742.16;5067505;28;51123;-47
2022/01/30 02:38:24;;;;;;;;;2.25;1.25;;;;;20.39;37.69;102736.47;5066281;28;51149;-47
2022/01/30 02:40:52;;;;;;;;;2.50;1.50;;;;;20.37;37.79;102743.19;5067344;28;50818;-47
2022/01/30 02:43:22;;;;;;;;;2.25;2.25;;;;;20.37;37.84;102745.94;5070731;28;51708;-48
2022/01/30 02:46:00;;;;;;;;;2.00;2.00;;;;;20.36;37.45;102747.00;5065493;28;50865;-49
2022/01/30 02:48:33;;;;;;;;;1.00;1.00;;;;;20.35;37.73;102731.50;5072976;28;51265;-49
2022/01/30 02:51:11;;;;;;;;;2.00;2.00;;;;;20.36;38.02;102735.97;5068625;28;50861;-51
2022/01/30 02:53:41;;;;;;;;;4.00;4.00;;;;;20.34;38.12;102751.81;5061489;28;51440;-48
2022/01/30 02:56:06;;;;;;;;;1.00;1.00;;;;;20.35;37.72;102756.28;5069111;27;50859;-48
2022/01/30 02:58:32;;;;;;;;;4.25;2.00;;;;;20.35;37.74;102759.03;5066414;28;50910;-49
2022/01/30 03:00:57;;;;;;;;;2.25;2.25;;;;;20.34;38.03;102744.41;5068486;28;51026;-46
2022/01/30 03:03:23;;;;;;;;;3.00;2.00;;;;;20.34;37.90;102751.81;5066493;28;50995;-46
2022/01/30 03:05:48;;;;;;;;;2.00;2.00;;;;;20.34;38.05;102760.06;5062779;28;51028;-47
2022/01/30 03:08:14;;;;;;;;;4.00;2.00;;;;;20.33;37.87;102752.84;5061602;28;51110;-50
2022/01/30 03:10:40;;;;;;;;;3.00;3.00;;;;;20.33;37.94;102759.22;5067926;28;51034;-46
2022/01/30 03:13:05;;;;;;;;;2.50;2.00;;;;;20.32;37.88;102754.75;5065703;28;50948;-47
2022/01/30 03:15:31;;;;;;;;;1.25;1.25;;;;;20.33;37.86;102755.59;5068894;27;51105;-48
2022/01/30 03:17:56;;;;;;;;;2.00;2.00;;;;;20.33;37.60;102769.38;5066716;27;51308;-50
2022/01/30 03:20:22;;;;;;;;;2.00;2.00;;;;;20.32;37.67;102760.25;5066683;28;51284;-47
2022/01/30 03:22:47;;;;;;;;;2.75;2.75;;;;;20.32;37.66;102753.88;5069753;28;51636;-46
2022/01/30 03:25:13;;;;;;;;;2.25;2.00;;;;;20.31;37.87;102757.66;5066174;28;51157;-49
2022/01/30 03:27:41;;;;;;;;;5.75;2.75;;;;;20.30;38.11;102758.69;5075417;28;51031;-49
2022/01/30 03:30:13;;;;;;;;;1.00;1.00;;;;;20.30;37.59;102762.31;5060494;28;50991;-47
2022/01/30 03:32:39;;;;;;;;;1.75;1.75;;;;;20.29;37.74;102763.34;5068550;28;51013;-51
2022/01/30 03:35:05;;;;;;;;;3.00;2.00;;;;;20.30;37.83;102761.44;5064651;28;51070;-48
2022/01/30 03:37:30;;;;;;;;;3.25;2.00;;;;;20.29;38.02;102776.25;5083052;27;51055;-49
2022/01/30 03:39:55;;;;;;;;;2.75;2.25;;;;;20.28;37.99;102769.03;5068624;28;50912;-46
2022/01/30 03:42:21;;;;;;;;;2.00;2.00;;;;;20.28;37.76;102761.63;5066556;28;50913;-48
2022/01/30 03:44:47;;;;;;;;;2.50;2.50;;;;;20.27;37.74;102770.91;5065620;28;50964;-48
2022/01/30 03:47:12;;;;;;;;;3.00;3.00;;;;;20.27;37.82;102773.66;5064024;28;51218;-45
2022/01/30 03:49:39;;;;;;;;;3.25;2.00;;;;;20.27;38.30;102753.53;5065687;28;50928;-48
2022/01/30 03:52:05;;;;;;;;;1.75;1.25;;;;;20.26;37.78;102757.34;5065354;28;52227;-51
2022/01/30 03:54:32;;;;;;;;;1.00;1.00;;;;;20.24;37.67;102757.50;5062097;28;51389;-47
2022/01/30 03:56:58;;;;;;;;;3.00;2.50;;;;;20.25;37.83;102755.63;5063648;28;50928;-50
2022/01/30 03:59:23;;;;;;;;;2.25;0.75;;;;;20.25;38.15;102761.13;5062831;28;51033;-47
2022/01/30 04:01:49;;;;;;;;;1.75;1.75;;;;;20.24;37.97;102768.53;5065594;28;51147;-47
2022/01/30 04:04:14;;;;;;;;;2.75;1.50;;;;;20.24;37.67;102771.28;5066466;28;51262;-45
2022/01/30 04:06:40;;;;;;;;;3.00;1.25;;;;;20.24;37.88;102767.66;5065957;28;51042;-50
2022/01/30 04:09:05;;;;;;;;;3.50;1.00;;;;;20.22;37.89;102766.94;5065528;27;51431;-49
2022/01/30 04:11:31;;;;;;;;;1.75;1.75;;;;;20.21;37.67;102768.84;5068484;28;51705;-47
2022/01/30 04:13:56;;;;;;;;;4.25;2.00;;;;;20.21;37.78;102774.34;5067959;28;50915;-51
2022/01/30 04:16:22;;;;;;;;;1.25;1.25;;;;;20.19;37.62;102774.53;5067742;28;50900;-48
2022/01/30 04:18:48;;;;;;;;;3.00;3.00;;;;;20.21;37.66;102779.00;5065183;28;50994;-46
2022/01/30 04:21:13;;;;;;;;;3.75;3.00;;;;;20.19;37.90;102771.78;5066113;28;51001;-46
2022/01/30 04:23:39;;;;;;;;;1.00;1.00;;;;;20.19;37.46;102780.03;5067620;28;51116;-48
2022/01/30 04:26:05;;;;;;;;;1.00;1.00;;;;;20.19;37.50;102784.69;5067615;28;51059;-46
2022/01/30 04:28:31;;;;;;;;;2.00;2.00;;;;;20.19;37.34;102782.78;5067706;28;51472;-46
2022/01/30 04:30:56;;;;;;;;;2.25;2.00;;;;;20.17;37.76;102782.09;5066366;27;51834;-47
2022/01/30 04:33:22;;;;;;;;;0.75;0.75;;;;;20.17;37.50;102778.50;5065870;27;51035;-46
2022/01/30 04:35:48;;;;;;;;;3.00;1.00;;;;;20.16;37.43;102780.38;5065071;28;51134;-47
2022/01/30 04:38:22;;;;;;;;;1.75;1.00;;;;;20.15;37.70;102777.81;5067766;28;51086;-47
2022/01/30 04:57:52;;;;;;;;;1.00;1.00;;;;;20.08;37.64;102791.41;5016902;28;51134;-47
2022/01/30 05:08:07;;;;;;;;;1.75;1.75;;;;;20.07;37.23;102784.19;5064573;28;51059;-47
2022/01/30 05:10:33;;;;;;;;;2.00;1.00;;;;;20.07;37.19;102797.06;5066058;28;51150;-46
2022/01/30 05:13:00;;;;;;;;;1.50;1.00;;;;;20.06;37.27;102795.34;5059563;28;51243;-51
2022/01/30 05:15:28;;;;;;;;;0.75;0.00;;;;;20.05;37.40;102805.50;5072565;27;50916;-46
2022/01/30 05:17:54;;;;;;;;;1.75;1.75;;;;;20.06;37.34;102815.47;5064125;28;50955;-49
2022/01/30 05:20:19;;;;;;;;;1.00;1.00;;;;;20.05;37.51;102810.16;5066301;28;50985;-48
2022/01/30 05:22:45;;;;;;;;;1.00;1.00;;;;;20.04;37.48;102809.28;5064393;28;51357;-48
2022/01/30 05:25:11;;;;;;;;;0.50;0.50;;;;;20.05;37.25;102815.66;5063997;27;51483;-47
2022/01/30 05:27:37;;;;;;;;;3.75;2.00;;;;;20.03;37.25;102817.72;5081165;27;51136;-49
2022/01/30 05:30:04;;;;;;;;;2.75;2.00;;;;;20.04;37.25;102819.44;5066804;28;51087;-46
2022/01/30 05:32:29;;;;;;;;;1.00;1.00;;;;;20.02;37.40;102819.63;5066851;28;51022;-50
2022/01/30 05:34:56;;;;;;;;;1.00;1.00;;;;;20.02;37.01;102822.38;5064826;27;51188;-49
2022/01/30 05:37:22;;;;;;;;;1.00;1.00;;;;;20.01;37.46;102823.41;5067815;28;51008;-47
2022/01/30 05:39:48;;;;;;;;;1.00;1.00;;;;;20.01;37.49;102828.91;5068836;28;51448;-45
2022/01/30 05:42:14;;;;;;;;;1.00;1.00;;;;;20.00;37.12;102827.16;5065208;28;51099;-47
2022/01/30 05:44:59;;;;;;;;;1.00;0.50;;;;;19.99;37.12;102822.69;5068812;28;50819;-51
2022/01/30 05:47:35;;;;;;;;;2.00;1.00;;;;;19.99;37.20;102833.69;5061642;28;51127;-46
2022/01/30 05:50:02;;;;;;;;;1.75;1.00;;;;;19.99;37.32;102828.19;5070896;28;51799;-47
2022/01/30 05:52:27;;;;;;;;;2.00;2.00;;;;;19.99;37.11;102832.84;5070531;28;51139;-48
2022/01/30 05:54:52;;;;;;;;;2.00;0.50;;;;;19.98;37.09;102837.47;5070733;27;51107;-47
2022/01/30 05:57:18;;;;;;;;;0.75;0.25;;;;;19.97;37.04;102830.25;5094719;27;51051;-46
2022/01/30 05:59:43;;;;;;;;;0.50;0.25;;;;;19.97;37.31;102835.75;5067159;28;51562;-53
2022/01/30 06:02:09;;;;;;;;;0.75;0.75;;;;;19.97;37.24;102833.00;5067293;28;52236;-52
2022/01/30 06:04:34;;;;;;;;;0.25;0.25;;;;;19.97;37.21;102833.00;5068385;27;51337;-48
2022/01/30 06:07:01;;;;;;;;;2.25;2.25;;;;;19.97;37.09;102841.25;5068698;28;51296;-47
2022/01/30 06:09:27;;;;;;;;;1.00;1.00;;;;;19.96;37.23;102836.78;5069266;28;51169;-49
2022/01/30 06:11:52;;;;;;;;;2.25;0.25;;;;;19.95;37.15;102839.72;5067031;28;50984;-46
2022/01/30 06:14:22;;;;;;;;;0.00;0.00;;;;;19.95;37.29;102843.31;5068985;28;51015;-47
2022/01/30 06:16:49;;;;;;;;;2.50;1.00;;;;;19.95;37.31;102839.72;5089105;27;51090;-49
2022/01/30 06:19:15;;;;;;;;;1.25;1.25;;;;;19.94;37.18;102846.25;5069822;28;51279;-47
2022/01/30 06:21:40;;;;;;;;;1.00;1.00;;;;;19.93;36.95;102850.91;5069544;28;52024;-51
2022/01/30 06:24:05;;;;;;;;;0.00;0.00;;;;;19.92;37.25;102851.94;5064496;28;51008;-46
2022/01/30 06:26:31;;;;;;;;;2.00;1.00;;;;;19.92;36.91;102860.19;5073101;28;50971;-48
2022/01/30 06:28:56;;;;;;;;;2.00;0.50;;;;;19.92;37.13;102871.19;5069958;28;51244;-46
2022/01/30 06:31:22;;;;;;;;;1.00;1.00;;;;;19.91;37.13;102866.72;5069730;28;52118;-46
2022/01/30 06:33:48;;;;;;;;;1.50;1.50;;;;;19.89;36.86;102871.50;5068990;28;51043;-49
2022/01/30 06:36:13;;;;;;;;;0.75;0.00;;;;;19.89;37.11;102866.84;5065245;28;51230;-46
2022/01/30 06:38:38;;;;;;;;;1.75;1.00;;;;;19.89;36.93;102857.75;5067637;28;50967;-47
2022/01/30 06:41:04;;;;;;;;;0.50;0.50;;;;;19.89;37.27;102857.75;5063219;28;51066;-46
2022/01/30 06:43:29;;;;;;;;;0.25;0.25;;;;;19.88;36.95;102859.63;5062968;28;51035;-49
2022/01/30 06:45:56;;;;;;;;;1.50;0.00;;;;;19.86;37.18;102856.22;5064797;28;51129;-49
2022/01/30 06:48:22;;;;;;;;;1.00;1.00;;;;;19.87;36.74;102868.06;5062112;28;51306;-48
2022/01/30 06:50:48;;;;;;;;;1.00;1.00;;;;;19.87;37.39;102868.06;5073498;28;52043;-48
2022/01/30 06:53:13;;;;;;;;;2.00;2.00;;;;;19.87;37.74;102879.06;5068978;28;51071;-47
2022/01/30 06:55:42;;;;;;;;;4.25;3.50;;;;;19.89;36.88;102874.25;5064385;27;51207;-46
2022/01/30 06:58:08;;;;;;;;;4.50;2.50;;;;;19.89;36.49;102871.50;5069430;28;51049;-46
2022/01/30 07:00:35;;;;;;;;;3.25;1.50;;;;;19.87;36.00;102876.31;5069147;28;51020;-49
2022/01/30 07:03:00;;;;;;;;;3.00;2.00;;;;;19.86;36.51;102863.59;5067497;28;50924;-48
2022/01/30 07:05:26;;;;;;;;;1.75;1.75;;;;;19.87;36.58;102863.44;5069328;27;51210;-44
2022/01/30 07:07:51;;;;;;;;;5.00;2.50;;;;;19.95;36.07;102870.84;5059392;28;51128;-47
2022/01/30 07:10:17;;;;;;;;;1.25;1.25;;;;;20.03;36.24;102857.09;5062428;28;51568;-43
2022/01/30 07:12:43;;;;;;;;;3.50;2.00;;;;;20.12;35.89;102861.56;5068702;28;51016;-47
2022/01/30 07:15:09;;;;;;;;;2.00;1.25;;;;;20.22;35.84;102866.91;5072219;28;51083;-44
2022/01/30 07:17:34;;;;;;;;;1.00;0.50;;;;;20.32;35.87;102866.72;5064630;28;51071;-47
2022/01/30 07:19:59;;;;;;;;;2.00;1.75;;;;;20.40;35.54;102874.97;5060474;28;50952;-46
2022/01/30 07:22:27;;;;;;;;;1.25;0.25;;;;;20.50;35.97;102875.69;5070555;28;51147;-48
2022/01/30 07:24:53;;;;;;;;;1.00;0.00;;;;;20.60;36.21;102883.75;5058895;28;51906;-46
2022/01/30 07:27:19;;;;;;;;;2.50;2.00;;;;;20.70;35.74;102882.53;5069396;28;51343;-49
2022/01/30 07:29:44;;;;;;;;;1.00;1.00;;;;;20.82;35.95;102887.69;5066911;28;51726;-47
2022/01/30 07:32:10;;;;;;;;;2.00;1.25;;;;;20.91;35.85;102894.88;5058177;28;51307;-48
2022/01/30 07:34:35;;;;;;;;;3.25;0.75;;;;;21.02;36.11;102900.03;5057518;28;51187;-45
2022/01/30 07:37:01;;;;;;;;;3.00;2.00;;;;;21.10;36.12;102905.53;5065971;28;51190;-48
2022/01/30 07:39:29;;;;;;;;;3.00;1.00;;;;;21.20;35.68;102910.81;5065373;28;51763;-45
2022/01/30 07:41:54;;;;;;;;;4.75;2.50;;;;;21.29;36.03;102916.16;5064342;28;51488;-47
2022/01/30 07:44:20;;;;;;;;;3.00;3.00;;;;;21.35;35.98;102908.22;5062458;28;51171;-46
2022/01/30 07:46:46;;;;;;;;;3.75;2.75;;;;;21.35;35.99;102910.97;5067777;28;51094;-47
2022/01/30 07:49:11;;;;;;;;;3.00;1.25;;;;;21.35;35.94;102908.22;5063230;28;50955;-47
2022/01/30 07:51:37;;;;;;;;;2.00;2.00;;;;;21.31;36.14;102908.56;5061401;28;51053;-49
2022/01/30 07:54:02;;;;;;;;;1.25;1.25;;;;;21.31;36.30;102911.34;5063473;28;51036;-48
2022/01/30 07:56:28;;;;;;;;;3.00;1.75;;;;;21.31;36.14;102921.50;5061945;28;51799;-46
2022/01/30 07:58:53;;;;;;;;;2.50;2.00;;;;;21.31;36.06;102922.34;5060446;28;51205;-47
2022/01/30 08:01:18;;;;;;;;;1.50;1.00;;;;;21.31;36.26;102932.53;5063688;28;50950;-45
2022/01/30 08:03:46;;;;;;;;;2.25;1.50;;;;;21.29;36.31;102929.09;5061633;28;51141;-46
2022/01/30 08:06:12;;;;;;;;;3.75;3.00;;;;;21.33;36.61;102933.19;5057699;28;51272;-47
2022/01/30 08:08:37;;;;;;;;;1.00;1.00;;;;;21.42;36.75;102934.03;5057021;28;51337;-48
2022/01/30 08:11:03;;;;;;;;;2.75;1.00;;;;;21.52;36.27;102930.03;5063501;28;51126;-46
2022/01/30 08:13:28;;;;;;;;;2.75;1.50;;;;;21.62;36.31;102938.09;5065240;28;51070;-47
2022/01/30 08:15:54;;;;;;;;;3.75;1.00;;;;;21.73;36.46;102934.06;5063732;28;51066;-45
2022/01/30 08:18:19;;;;;;;;;1.25;1.25;;;;;21.76;36.52;102940.06;5059099;28;51688;-45
2022/01/30 08:20:44;;;;;;;;;1.25;1.25;;;;;21.77;35.74;102938.16;5057617;28;51181;-43
2022/01/30 08:23:15;;;;;;;;;1.25;1.25;;;;;21.77;36.35;102939.03;5067175;28;52502;-48
2022/01/30 08:25:42;;;;;;;;;4.00;2.50;;;;;21.75;35.75;102938.34;5063400;27;51288;-45
2022/01/30 08:28:08;;;;;;;;;4.75;1.00;;;;;21.72;35.70;102935.97;5067332;28;52499;-45
2022/01/30 08:30:34;;;;;;;;;2.25;2.00;;;;;21.70;36.55;102928.91;5065370;28;50959;-49
2022/01/30 08:33:00;;;;;;;;;2.00;2.00;;;;;21.68;36.29;102931.00;5066373;28;51099;-49
2022/01/30 08:35:26;;;;;;;;;0.75;0.75;;;;;21.65;36.51;102936.84;5062751;28;51123;-47
2022/01/30 08:37:52;;;;;;;;;1.75;1.75;;;;;21.65;36.28;102934.09;5058448;28;50936;-47
2022/01/30 08:40:19;;;;;;;;;1.00;1.00;;;;;21.67;36.51;102929.25;5060757;28;51137;-48
2022/01/30 08:42:47;;;;;;;;;1.25;1.00;;;;;21.73;35.99;102934.06;5064636;28;50839;-45
2022/01/30 08:45:14;;;;;;;;;2.00;2.00;;;;;21.83;36.20;102931.94;5058698;28;51051;-45
2022/01/30 08:47:41;;;;;;;;;1.00;1.00;;;;;21.91;35.76;102929.13;5064172;28;51082;-49
2022/01/30 08:50:08;;;;;;;;;2.00;2.00;;;;;21.96;36.27;102929.44;5063650;28;51329;-50
2022/01/30 08:52:33;;;;;;;;;2.75;1.50;;;;;21.99;35.71;102939.25;5065340;28;51008;-49
2022/01/30 08:54:59;;;;;;;;;2.00;1.00;;;;;21.98;35.78;102941.16;5063368;28;51459;-49
2022/01/30 08:57:25;;;;;;;;;3.75;1.00;;;;;21.98;35.83;102940.28;5059080;28;51016;-47
2022/01/30 08:59:51;;;;;;;;;1.50;0.25;;;;;21.97;36.02;102935.81;5065999;28;51149;-47
2022/01/30 09:02:18;;;;;;;;;3.75;2.00;;;;;21.94;36.06;102936.19;5062719;28;51094;-45
2022/01/30 09:04:43;;;;;;;;;1.50;1.00;;;;;21.94;35.62;102941.69;5060263;28;51119;-46
2022/01/30 09:07:08;;;;;;;;;0.75;0.25;;;;;21.91;35.44;102942.94;5088629;27;51629;-44
2022/01/30 09:09:34;;;;;;;;;2.00;2.00;;;;;21.90;35.56;102946.72;5065832;28;51021;-45
2022/01/30 09:11:59;;;;;;;;;2.75;2.00;;;;;21.89;35.75;102958.81;5068700;28;51057;-48
2022/01/30 09:14:26;;;;;;;;;4.00;2.00;;;;;21.88;35.57;102943.28;5069944;27;51249;-44
2022/01/30 09:16:52;;;;;;;;;2.50;2.00;;;;;21.90;35.58;102935.69;5062869;28;52552;-45
2022/01/30 09:19:17;;;;;;;;;4.00;1.00;;;;;21.98;35.86;102946.66;5062771;28;51137;-45
2022/01/30 09:21:42;;;;;;;;;2.75;1.00;;;;;22.05;36.36;102953.19;5059919;28;51148;-45
2022/01/30 09:24:08;;;;;;;;;2.00;2.00;;;;;22.11;36.16;102949.75;5072061;28;51336;-44
2022/01/30 09:26:33;;;;;;;;;2.25;1.00;;;;;22.13;35.90;102958.69;5065355;28;51787;-46
2022/01/30 09:28:58;;;;;;;;;2.00;0.00;;;;;22.12;35.95;102961.63;5068937;28;51224;-44
2022/01/30 09:31:24;;;;;;;;;3.00;1.00;;;;;22.10;35.83;102953.53;5063708;28;51395;-43
2022/01/30 09:33:49;;;;;;;;;2.00;2.00;;;;;22.09;36.22;102960.09;5070212;28;50933;-44
2022/01/30 09:36:15;;;;;;;;;3.00;1.00;;;;;22.08;35.68;102960.25;5067179;28;51887;-47
2022/01/30 09:38:41;;;;;;;;;4.00;1.00;;;;;22.07;35.69;102961.31;5067242;28;51121;-44
2022/01/30 09:41:08;;;;;;;;;1.75;1.75;;;;;22.06;35.83;102956.78;5083746;27;51334;-46
2022/01/30 09:43:35;;;;;;;;;3.00;2.25;;;;;22.02;35.51;102966.50;5074855;28;51125;-47
2022/01/30 09:46:02;;;;;;;;;2.00;1.00;;;;;22.00;35.58;102963.06;5067028;28;50952;-46
2022/01/30 09:48:28;;;;;;;;;3.00;2.00;;;;;21.97;35.29;102957.88;5072963;28;51173;-46
2022/01/30 09:50:55;;;;;;;;;1.75;1.75;;;;;21.96;35.88;102958.94;5059523;28;51428;-44
2022/01/30 09:53:20;;;;;;;;;3.25;2.25;;;;;21.93;35.56;102964.81;5066433;28;50933;-47
2022/01/30 09:55:45;;;;;;;;;9.50;8.25;;;;;21.89;35.00;102954.16;5069596;28;52867;-48
2022/01/30 09:58:11;;;;;;;;;5.25;4.00;;;;;21.84;35.43;102953.81;5064234;28;51088;-47
2022/01/30 10:00:36;;;;;;;;;9.00;8.00;;;;;21.80;35.53;102959.91;5066875;28;51130;-44
2022/01/30 10:03:02;;;;;;;;;6.00;4.75;;;;;21.75;35.62;102957.66;5068441;28;51010;-44
2022/01/30 10:05:33;;;;;;;;;5.25;5.25;;;;;21.70;35.18;102960.13;5068244;27;52709;-45
2022/01/30 10:07:58;;;;;;;;;7.25;4.25;;;;;21.66;35.29;102955.97;5082019;27;51335;-47
2022/01/30 10:10:27;;;;;;;;;6.25;4.00;;;;;21.63;35.12;102961.00;5062501;28;51081;-46
2022/01/30 10:13:02;;;;;;;;;7.75;5.00;;;;;21.59;35.50;102963.28;5070017;27;50966;-46
2022/01/30 10:15:28;;;;;;;;;5.00;4.75;;;;;21.57;35.57;102954.28;5068394;28;51974;-45
2022/01/30 10:17:53;;;;;;;;;6.75;5.50;;;;;21.54;35.66;102957.41;5066831;28;51017;-46
2022/01/30 10:20:25;;;;;;;;;5.00;3.25;;;;;21.53;35.46;102961.22;5066100;28;51294;-46
2022/01/30 10:22:53;;;;;;;;;8.00;4.00;;;;;21.53;35.14;102963.97;5056219;28;50987;-46
2022/01/30 10:25:27;;;;;;;;;5.25;4.25;;;;;21.50;35.19;102956.06;5069440;28;51840;-44
2022/01/30 10:28:33;;;;;;;;;4.25;3.50;;;;;21.49;35.13;102954.34;5066486;28;50997;-44
2022/01/30 10:31:07;;;;;;;;;5.75;5.25;;;;;21.47;35.14;102959.19;5067212;28;51083;-47
2022/01/30 10:33:47;;;;;;;;;6.75;4.50;;;;;21.47;35.32;102953.69;5070154;28;51310;-44
2022/01/30 10:36:23;;;;;;;;;4.50;4.00;;;;;21.46;35.44;102957.44;5066327;28;51330;-44
2022/01/30 10:39:02;;;;;;;;;5.25;3.25;;;;;21.47;35.44;102956.44;5070128;28;51353;-49
2022/01/30 10:41:36;;;;;;;;;5.25;5.25;;;;;21.47;35.45;102950.91;5067989;28;50920;-45
2022/01/30 10:44:06;;;;;;;;;6.25;3.00;;;;;21.47;35.46;102945.41;5066177;28;51026;-47
2022/01/30 10:46:45;;;;;;;;;7.50;5.00;;;;;21.49;35.44;102948.84;5070989;28;52797;-49
2022/01/30 10:49:15;;;;;;;;;3.00;3.00;;;;;21.50;35.16;102947.78;5068386;28;51308;-50
2022/01/30 10:51:54;;;;;;;;;4.50;4.00;;;;;21.50;34.89;102947.78;5089984;27;51005;-49
2022/01/30 10:54:20;;;;;;;;;10.00;4.00;;;;;21.50;34.85;102947.78;5092218;27;51294;-46
2022/01/30 10:56:46;;;;;;;;;7.75;4.50;;;;;21.50;34.92;102939.53;5069118;28;52428;-47
2022/01/30 10:59:22;;;;;;;;;4.00;3.00;;;;;21.52;34.82;102946.56;5070053;28;50944;-46
2022/01/30 11:01:50;;;;;;;;;3.25;3.25;;;;;21.51;34.57;102936.59;5070147;28;50921;-49
2022/01/30 11:04:21;;;;;;;;;5.00;4.00;;;;;21.52;35.12;102943.81;5065931;28;51160;-45
2022/01/30 11:06:47;;;;;;;;;2.00;2.00;;;;;21.52;34.82;102937.44;5066032;28;51181;-48
2022/01/30 11:09:17;;;;;;;;;3.25;3.25;;;;;21.52;34.52;102934.69;5065987;28;51113;-48
2022/01/30 11:11:50;;;;;;;;;4.50;3.25;;;;;21.53;34.91;102934.50;5065816;28;51060;-45
2022/01/30 11:14:19;;;;;;;;;5.00;5.00;;;;;21.54;34.61;102938.13;5068063;28;51359;-50
2022/01/30 11:17:02;;;;;;;;;5.00;3.00;;;;;21.54;34.84;102932.59;5069103;28;52533;-46
2022/01/30 11:19:29;;;;;;;;;4.50;4.00;;;;;21.53;34.87;102925.38;5065757;28;51388;-48
2022/01/30 11:21:59;;;;;;;;;5.00;3.00;;;;;21.56;34.81;102927.75;5069844;28;51007;-45
2022/01/30 11:24:26;;;;;;;;;4.00;2.50;;;;;21.54;34.74;102922.44;5068790;28;51230;-49
2022/01/30 11:26:52;;;;;;;;;4.25;3.00;;;;;21.54;34.40;102924.31;5072234;28;50928;-48
2022/01/30 11:29:22;;;;;;;;;3.50;3.00;;;;;21.52;34.81;102927.28;5068852;27;51014;-47
2022/01/30 11:31:50;;;;;;;;;3.00;2.00;;;;;21.52;34.52;102924.50;5066442;28;51018;-46
2022/01/30 11:34:15;;;;;;;;;7.25;5.25;;;;;21.50;34.67;102912.81;5069411;28;51076;-45
2022/01/30 11:36:44;;;;;;;;;5.00;5.00;;;;;21.50;34.38;102909.19;5071085;28;52278;-48
2022/01/30 11:39:15;;;;;;;;;6.25;4.25;;;;;21.48;34.54;102906.63;5088954;27;51258;-47
2022/01/30 11:41:41;;;;;;;;;6.00;4.00;;;;;21.46;34.42;102900.41;5066048;27;51149;-48
2022/01/30 11:44:18;;;;;;;;;4.00;3.75;;;;;21.45;34.68;102908.84;5067844;28;51138;-45
2022/01/30 11:46:56;;;;;;;;;3.75;3.50;;;;;21.42;34.17;102896.28;5066561;28;52036;-48
2022/01/30 11:49:22;;;;;;;;;5.00;4.00;;;;;21.42;34.25;102892.69;5067873;28;51173;-46
2022/01/30 11:51:48;;;;;;;;;6.00;4.00;;;;;21.41;34.65;102890.97;5067743;28;51094;-46
2022/01/30 11:54:53;;;;;;;;;5.50;3.75;;;;;21.39;34.68;102898.56;5053988;28;51129;-50
2022/01/30 11:57:21;;;;;;;;;7.25;4.00;;;;;21.37;34.67;102878.59;5063555;28;52190;-49
2022/01/30 11:59:55;;;;;;;;;4.00;4.00;;;;;21.36;34.27;102879.59;5063983;27;51297;-48
2022/01/30 12:02:24;;;;;;;;;4.75;3.00;;;;;21.36;34.71;102876.84;5061326;28;51076;-50
2022/01/30 12:05:11;;;;;;;;;5.50;2.75;;;;;21.40;34.29;102869.94;5062802;28;51049;-50
2022/01/30 12:07:41;;;;;;;;;2.75;2.75;;;;;21.50;34.81;102867.81;5059358;28;51070;-49
2022/01/30 12:10:15;;;;;;;;;5.00;3.00;;;;;21.60;34.90;102869.31;5060548;28;51149;-49
2022/01/30 12:12:48;;;;;;;;;7.00;5.00;;;;;21.72;34.38;102877.19;5060431;28;51081;-50
2022/01/30 12:15:47;;;;;;;;;2.50;2.50;;;;;21.83;34.80;102874.84;5058642;28;51534;-49
2022/01/30 12:18:14;;;;;;;;;4.50;4.00;;;;;21.93;34.82;102871.00;5051197;28;51881;-48